sensor_id;sensor_type;location;lat;lon;timestamp;pressure;altitude;pressure_sealevel;temperature;humidity
13414;BME280;6778;48.136;11.386;2023-01-16T00:01:21;94398.41;;;2.23;73.08
13414;BME280;6778;48.136;11.386;2023-01-16T00:03:51;94390.31;;;2.26;72.65
13414;BME280;6778;48.136;11.386;2023-01-16T00:06:21;94379.22;;;2.32;72.19
13414;BME280;6778;48.136;11.386;2023-01-16T00:08:51;94384.94;;;2.27;72.77
13414;BME280;6778;48.136;11.386;2023-01-16T00:11:21;94383.72;;;2.23;72.20
13414;BME280;6778;48.136;11.386;2023-01-16T00:13:51;94374.56;;;2.21;72.79
13414;BME280;6778;48.136;11.386;2023-01-16T00:16:23;94374.97;;;2.17;72.76
13414;BME280;6778;48.136;11.386;2023-01-16T00:18:53;94372.88;;;2.06;73.05
13414;BME280;6778;48.136;11.386;2023-01-16T00:21:23;94369.94;;;1.88;74.13
13414;BME280;6778;48.136;11.386;2023-01-16T00:23:54;94367.50;;;1.80;74.53
13414;BME280;6778;48.136;11.386;2023-01-16T00:26:26;94360.94;;;1.77;74.27
13414;BME280;6778;48.136;11.386;2023-01-16T00:28:58;94361.97;;;1.83;73.84
13414;BME280;6778;48.136;11.386;2023-01-16T00:31:31;94353.31;;;1.90;73.38
13414;BME280;6778;48.136;11.386;2023-01-16T00:34:01;94344.66;;;1.77;73.50
13414;BME280;6778;48.136;11.386;2023-01-16T00:36:31;94339.53;;;1.83;73.23
13414;BME280;6778;48.136;11.386;2023-01-16T00:39:01;94340.41;;;1.69;73.93
13414;BME280;6778;48.136;11.386;2023-01-16T00:41:31;94340.69;;;1.81;73.54
13414;BME280;6778;48.136;11.386;2023-01-16T00:44:02;94341.25;;;1.98;73.48
13414;BME280;6778;48.136;11.386;2023-01-16T00:46:35;94334.75;;;1.80;73.24
13414;BME280;6778;48.136;11.386;2023-01-16T00:49:04;94328.00;;;1.79;73.76
13414;BME280;6778;48.136;11.386;2023-01-16T00:51:34;94322.38;;;1.97;73.30
13414;BME280;6778;48.136;11.386;2023-01-16T00:54:04;94313.03;;;2.03;73.31
13414;BME280;6778;48.136;11.386;2023-01-16T00:56:34;94311.41;;;1.95;73.73
13414;BME280;6778;48.136;11.386;2023-01-16T00:59:04;94313.81;;;1.97;74.12
13414;BME280;6778;48.136;11.386;2023-01-16T01:01:36;94312.91;;;1.83;74.77
13414;BME280;6778;48.136;11.386;2023-01-16T01:04:06;94298.84;;;1.85;74.58
13414;BME280;6778;48.136;11.386;2023-01-16T01:06:39;94294.84;;;1.83;75.00
13414;BME280;6778;48.136;11.386;2023-01-16T01:09:09;94295.09;;;1.88;74.80
13414;BME280;6778;48.136;11.386;2023-01-16T01:11:39;94296.75;;;2.02;74.09
13414;BME280;6778;48.136;11.386;2023-01-16T01:14:08;94291.75;;;1.94;74.20
13414;BME280;6778;48.136;11.386;2023-01-16T01:16:41;94287.69;;;1.78;74.24
13414;BME280;6778;48.136;11.386;2023-01-16T01:19:11;94279.13;;;1.78;74.43
13414;BME280;6778;48.136;11.386;2023-01-16T01:21:40;94278.00;;;1.87;74.03
13414;BME280;6778;48.136;11.386;2023-01-16T01:24:10;94288.31;;;1.87;74.08
13414;BME280;6778;48.136;11.386;2023-01-16T01:26:40;94283.06;;;2.02;73.36
13414;BME280;6778;48.136;11.386;2023-01-16T01:29:10;94275.69;;;1.99;73.29
13414;BME280;6778;48.136;11.386;2023-01-16T01:31:43;94268.34;;;2.02;72.97
13414;BME280;6778;48.136;11.386;2023-01-16T01:34:13;94266.41;;;2.04;72.95
13414;BME280;6778;48.136;11.386;2023-01-16T01:36:42;94262.06;;;2.11;72.00
13414;BME280;6778;48.136;11.386;2023-01-16T01:39:12;94249.00;;;2.19;71.79
13414;BME280;6778;48.136;11.386;2023-01-16T01:41:42;94252.97;;;2.22;71.94
13414;BME280;6778;48.136;11.386;2023-01-16T01:44:41;94250.22;;;2.24;71.76
13414;BME280;6778;48.136;11.386;2023-01-16T01:47:17;94249.94;;;2.12;71.29
13414;BME280;6778;48.136;11.386;2023-01-16T01:49:50;94237.84;;;2.12;72.22
13414;BME280;6778;48.136;11.386;2023-01-16T01:52:22;94238.56;;;2.00;71.71
13414;BME280;6778;48.136;11.386;2023-01-16T01:54:58;94225.94;;;2.18;71.36
13414;BME280;6778;48.136;11.386;2023-01-16T01:57:34;94225.16;;;2.17;71.39
13414;BME280;6778;48.136;11.386;2023-01-16T02:00:09;94219.19;;;2.17;71.22
13414;BME280;6778;48.136;11.386;2023-01-16T02:02:48;94220.75;;;2.11;71.21
13414;BME280;6778;48.136;11.386;2023-01-16T02:05:25;94209.13;;;1.94;72.20
13414;BME280;6778;48.136;11.386;2023-01-16T02:07:58;94206.81;;;2.06;72.24
13414;BME280;6778;48.136;11.386;2023-01-16T02:10:35;94202.63;;;2.05;72.81
13414;BME280;6778;48.136;11.386;2023-01-16T02:13:06;94197.06;;;2.08;73.19
13414;BME280;6778;48.136;11.386;2023-01-16T02:15:38;94193.75;;;2.21;72.52
13414;BME280;6778;48.136;11.386;2023-01-16T02:18:31;94196.75;;;2.17;72.32
13414;BME280;6778;48.136;11.386;2023-01-16T02:21:32;94182.63;;;2.20;72.50
13414;BME280;6778;48.136;11.386;2023-01-16T02:27:27;94167.56;;;2.30;71.80
13414;BME280;6778;48.136;11.386;2023-01-16T02:30:30;94156.84;;;2.33;71.56
13414;BME280;6778;48.136;11.386;2023-01-16T02:33:22;94157.03;;;2.32;71.56
13414;BME280;6778;48.136;11.386;2023-01-16T02:36:05;94146.53;;;2.40;71.25
13414;BME280;6778;48.136;11.386;2023-01-16T02:38:50;94144.16;;;2.38;70.93
13414;BME280;6778;48.136;11.386;2023-01-16T02:41:33;94140.56;;;2.39;70.83
13414;BME280;6778;48.136;11.386;2023-01-16T02:44:19;94130.63;;;2.43;70.93
13414;BME280;6778;48.136;11.386;2023-01-16T02:47:14;94125.84;;;2.40;70.68
13414;BME280;6778;48.136;11.386;2023-01-16T02:49:57;94124.50;;;2.44;70.43
13414;BME280;6778;48.136;11.386;2023-01-16T02:52:36;94114.97;;;2.51;69.89
13414;BME280;6778;48.136;11.386;2023-01-16T02:55:13;94103.63;;;2.45;69.84
13414;BME280;6778;48.136;11.386;2023-01-16T02:57:51;94109.94;;;2.43;69.71
13414;BME280;6778;48.136;11.386;2023-01-16T03:00:24;94098.44;;;2.45;69.78
13414;BME280;6778;48.136;11.386;2023-01-16T03:02:55;94095.25;;;2.43;70.03
13414;BME280;6778;48.136;11.386;2023-01-16T03:05:36;94100.41;;;2.43;69.62
13414;BME280;6778;48.136;11.386;2023-01-16T03:08:31;94085.72;;;2.44;69.60
13414;BME280;6778;48.136;11.386;2023-01-16T03:11:16;94090.28;;;2.42;69.81
13414;BME280;6778;48.136;11.386;2023-01-16T03:14:08;94080.94;;;2.34;70.24
13414;BME280;6778;48.136;11.386;2023-01-16T03:19:49;94066.63;;;2.25;70.60
13414;BME280;6778;48.136;11.386;2023-01-16T03:22:33;94052.13;;;2.24;70.58
13414;BME280;6778;48.136;11.386;2023-01-16T03:25:19;94051.50;;;2.22;70.73
13414;BME280;6778;48.136;11.386;2023-01-16T03:27:58;94041.16;;;2.22;nan
13414;BME280;6778;48.136;11.386;2023-01-16T03:30:41;94035.19;;;2.22;71.78
13414;BME280;6778;48.136;11.386;2023-01-16T03:33:22;94031.22;;;2.12;73.15
13414;BME280;6778;48.136;11.386;2023-01-16T03:36:04;94028.84;;;2.11;73.77
13414;BME280;6778;48.136;11.386;2023-01-16T03:38:42;94019.47;;;1.83;75.15
13414;BME280;6778;48.136;11.386;2023-01-16T03:41:18;94017.25;;;1.80;75.66
13414;BME280;6778;48.136;11.386;2023-01-16T03:43:57;94006.31;;;1.72;75.86
13414;BME280;6778;48.136;11.386;2023-01-16T03:46:32;94003.56;;;1.80;77.09
13414;BME280;6778;48.136;11.386;2023-01-16T03:49:12;94001.53;;;1.69;77.72
13414;BME280;6778;48.136;11.386;2023-01-16T03:51:47;93994.16;;;1.52;79.18
13414;BME280;6778;48.136;11.386;2023-01-16T03:54:31;93993.19;;;1.60;79.37
13414;BME280;6778;48.136;11.386;2023-01-16T03:57:07;93987.59;;;1.43;81.28
13414;BME280;6778;48.136;11.386;2023-01-16T03:59:43;93977.25;;;1.43;81.70
13414;BME280;6778;48.136;11.386;2023-01-16T04:02:20;93972.06;;;1.36;81.94
13414;BME280;6778;48.136;11.386;2023-01-16T04:04:58;93967.00;;;1.15;83.63
13414;BME280;6778;48.136;11.386;2023-01-16T04:07:33;93970.16;;;1.04;84.07
13414;BME280;6778;48.136;11.386;2023-01-16T04:10:11;93974.81;;;0.87;84.68
13414;BME280;6778;48.136;11.386;2023-01-16T04:12:47;93965.22;;;0.74;85.01
13414;BME280;6778;48.136;11.386;2023-01-16T04:15:22;93955.78;;;0.81;84.57
13414;BME280;6778;48.136;11.386;2023-01-16T04:17:55;93952.97;;;0.76;84.11
13414;BME280;6778;48.136;11.386;2023-01-16T04:20:26;93941.16;;;0.89;82.89
13414;BME280;6778;48.136;11.386;2023-01-16T04:22:58;93928.47;;;1.00;82.12
13414;BME280;6778;48.136;11.386;2023-01-16T04:25:30;93908.56;;;0.81;82.88
13414;BME280;6778;48.136;11.386;2023-01-16T04:28:00;93904.03;;;0.83;82.17
13414;BME280;6778;48.136;11.386;2023-01-16T04:30:30;93888.78;;;0.81;82.33
13414;BME280;6778;48.136;11.386;2023-01-16T04:33:00;93882.66;;;0.89;81.94
13414;BME280;6778;48.136;11.386;2023-01-16T04:35:31;93871.34;;;0.84;82.01
13414;BME280;6778;48.136;11.386;2023-01-16T04:38:01;93870.88;;;0.73;81.27
13414;BME280;6778;48.136;11.386;2023-01-16T04:40:33;93866.50;;;0.67;81.34
13414;BME280;6778;48.136;11.386;2023-01-16T04:43:03;93863.28;;;0.59;82.28
13414;BME280;6778;48.136;11.386;2023-01-16T04:45:33;93852.47;;;0.70;80.72
13414;BME280;6778;48.136;11.386;2023-01-16T04:48:06;93850.25;;;0.67;80.69
13414;BME280;6778;48.136;11.386;2023-01-16T04:50:35;93845.91;;;0.74;80.26
13414;BME280;6778;48.136;11.386;2023-01-16T04:53:05;93854.81;;;0.65;80.27
13414;BME280;6778;48.136;11.386;2023-01-16T04:55:38;93845.34;;;0.78;79.59
13414;BME280;6778;48.136;11.386;2023-01-16T04:58:07;93831.66;;;0.78;79.77
13414;BME280;6778;48.136;11.386;2023-01-16T05:00:37;93824.47;;;0.67;79.91
13414;BME280;6778;48.136;11.386;2023-01-16T05:03:07;93820.94;;;0.74;79.92
13414;BME280;6778;48.136;11.386;2023-01-16T05:05:37;93813.22;;;0.74;79.77
13414;BME280;6778;48.136;11.386;2023-01-16T05:08:07;93820.75;;;0.69;80.02
13414;BME280;6778;48.136;11.386;2023-01-16T05:10:49;93807.09;;;0.75;79.78
13414;BME280;6778;48.136;11.386;2023-01-16T05:13:19;93809.31;;;0.37;81.18
13414;BME280;6778;48.136;11.386;2023-01-16T05:15:49;93807.97;;;0.41;81.18
13414;BME280;6778;48.136;11.386;2023-01-16T05:18:19;93791.72;;;0.41;81.65
13414;BME280;6778;48.136;11.386;2023-01-16T05:20:49;93797.66;;;0.41;81.92
13414;BME280;6778;48.136;11.386;2023-01-16T05:23:18;93779.81;;;0.40;81.48
13414;BME280;6778;48.136;11.386;2023-01-16T05:25:51;93765.19;;;0.53;81.08
13414;BME280;6778;48.136;11.386;2023-01-16T05:28:21;93763.00;;;0.50;80.65
13414;BME280;6778;48.136;11.386;2023-01-16T05:30:51;93762.19;;;0.43;81.09
13414;BME280;6778;48.136;11.386;2023-01-16T05:33:20;93757.00;;;0.30;81.77
13414;BME280;6778;48.136;11.386;2023-01-16T05:35:50;93753.72;;;0.49;81.32
13414;BME280;6778;48.136;11.386;2023-01-16T05:38:21;93749.31;;;0.43;81.57
13414;BME280;6778;48.136;11.386;2023-01-16T05:40:54;93747.94;;;0.41;82.15
13414;BME280;6778;48.136;11.386;2023-01-16T05:43:25;93746.69;;;0.23;82.93
13414;BME280;6778;48.136;11.386;2023-01-16T05:45:54;93744.63;;;0.12;83.45
13414;BME280;6778;48.136;11.386;2023-01-16T05:48:24;93740.50;;;0.18;83.52
13414;BME280;6778;48.136;11.386;2023-01-16T05:50:55;93732.91;;;-0.04;84.04
13414;BME280;6778;48.136;11.386;2023-01-16T05:53:25;93714.38;;;0.14;83.70
13414;BME280;6778;48.136;11.386;2023-01-16T05:56:05;93721.25;;;0.01;84.07
13414;BME280;6778;48.136;11.386;2023-01-16T05:58:35;93707.94;;;-0.10;84.40
13414;BME280;6778;48.136;11.386;2023-01-16T06:01:05;93708.13;;;-0.11;84.60
13414;BME280;6778;48.136;11.386;2023-01-16T06:03:35;93695.00;;;-0.23;85.09
13414;BME280;6778;48.136;11.386;2023-01-16T06:06:05;93695.00;;;-0.23;85.39
13414;BME280;6778;48.136;11.386;2023-01-16T06:08:35;93684.47;;;-0.28;85.90
13414;BME280;6778;48.136;11.386;2023-01-16T06:11:08;93679.72;;;-0.31;86.18
13414;BME280;6778;48.136;11.386;2023-01-16T06:13:37;93668.97;;;-0.41;86.69
13414;BME280;6778;48.136;11.386;2023-01-16T06:16:07;93667.31;;;-0.21;85.70
13414;BME280;6778;48.136;11.386;2023-01-16T06:18:37;93652.66;;;-0.20;85.72
13414;BME280;6778;48.136;11.386;2023-01-16T06:21:07;93640.38;;;-0.25;86.07
13414;BME280;6778;48.136;11.386;2023-01-16T06:23:37;93630.28;;;-0.33;86.01
13414;BME280;6778;48.136;11.386;2023-01-16T06:26:09;93626.16;;;-0.21;85.68
13414;BME280;6778;48.136;11.386;2023-01-16T06:28:39;93613.25;;;-0.28;85.90
13414;BME280;6778;48.136;11.386;2023-01-16T06:31:09;93619.84;;;-0.18;85.56
13414;BME280;6778;48.136;11.386;2023-01-16T06:33:39;93612.31;;;-0.20;85.55
13414;BME280;6778;48.136;11.386;2023-01-16T06:36:09;93607.19;;;-0.20;85.53
13414;BME280;6778;48.136;11.386;2023-01-16T06:38:39;93594.34;;;-0.13;84.80
13414;BME280;6778;48.136;11.386;2023-01-16T06:41:11;93587.56;;;-0.14;84.51
13414;BME280;6778;48.136;11.386;2023-01-16T06:43:41;93577.31;;;-0.08;84.23
13414;BME280;6778;48.136;11.386;2023-01-16T06:46:11;93569.59;;;-0.08;83.82
13414;BME280;6778;48.136;11.386;2023-01-16T06:48:41;93556.53;;;-0.06;83.31
13414;BME280;6778;48.136;11.386;2023-01-16T06:51:10;93555.16;;;0.05;83.27
13414;BME280;6778;48.136;11.386;2023-01-16T06:53:40;93548.41;;;-0.10;83.61
13414;BME280;6778;48.136;11.386;2023-01-16T06:56:13;93543.06;;;-0.08;83.67
13414;BME280;6778;48.136;11.386;2023-01-16T06:58:44;93537.94;;;-0.02;83.70
13414;BME280;6778;48.136;11.386;2023-01-16T07:01:13;93524.88;;;-0.13;83.87
13414;BME280;6778;48.136;11.386;2023-01-16T07:03:44;93518.91;;;-0.20;83.51
13414;BME280;6778;48.136;11.386;2023-01-16T07:06:14;93515.75;;;-0.09;83.40
13414;BME280;6778;48.136;11.386;2023-01-16T07:08:44;93494.59;;;0.02;83.14
13414;BME280;6778;48.136;11.386;2023-01-16T07:11:18;93492.81;;;0.09;82.16
13414;BME280;6778;48.136;11.386;2023-01-16T07:13:48;93490.44;;;-0.12;83.03
13414;BME280;6778;48.136;11.386;2023-01-16T07:16:38;93488.66;;;-0.12;83.88
13414;BME280;6778;48.136;11.386;2023-01-16T07:19:21;93480.75;;;0.03;83.30
13414;BME280;6778;48.136;11.386;2023-01-16T07:22:03;93474.41;;;0.12;83.38
13414;BME280;6778;48.136;11.386;2023-01-16T07:24:46;93471.34;;;0.81;80.69
13414;BME280;6778;48.136;11.386;2023-01-16T07:27:18;93464.50;;;1.52;78.37
13414;BME280;6778;48.136;11.386;2023-01-16T07:29:48;93459.78;;;2.30;75.54
13414;BME280;6778;48.136;11.386;2023-01-16T07:32:19;93455.88;;;2.21;73.18
13414;BME280;6778;48.136;11.386;2023-01-16T07:34:49;93448.91;;;2.46;71.36
13414;BME280;6778;48.136;11.386;2023-01-16T07:37:19;93438.53;;;2.53;70.67
13414;BME280;6778;48.136;11.386;2023-01-16T07:39:49;93430.94;;;3.25;69.14
13414;BME280;6778;48.136;11.386;2023-01-16T07:42:21;93419.78;;;3.84;66.87
13414;BME280;6778;48.136;11.386;2023-01-16T07:44:51;93412.19;;;4.60;64.27
13414;BME280;6778;48.136;11.386;2023-01-16T07:47:21;93405.34;;;5.06;63.09
13414;BME280;6778;48.136;11.386;2023-01-16T07:49:50;93399.59;;;5.04;62.45
13414;BME280;6778;48.136;11.386;2023-01-16T07:52:20;93401.38;;;4.16;63.65
13414;BME280;6778;48.136;11.386;2023-01-16T07:54:50;93394.88;;;5.01;61.14
13414;BME280;6778;48.136;11.386;2023-01-16T07:57:22;93390.16;;;4.86;62.22
13414;BME280;6778;48.136;11.386;2023-01-16T07:59:53;93384.03;;;4.52;62.83
13414;BME280;6778;48.136;11.386;2023-01-16T08:02:23;93380.66;;;6.06;59.12
13414;BME280;6778;48.136;11.386;2023-01-16T08:04:53;93368.59;;;6.33;57.50
13414;BME280;6778;48.136;11.386;2023-01-16T08:07:23;93368.03;;;6.14;58.26
13414;BME280;6778;48.136;11.386;2023-01-16T08:09:53;93361.81;;;6.32;57.39
13414;BME280;6778;48.136;11.386;2023-01-16T08:12:25;93347.38;;;6.41;57.21
13414;BME280;6778;48.136;11.386;2023-01-16T08:14:55;93340.88;;;6.82;56.36
13414;BME280;6778;48.136;11.386;2023-01-16T08:17:25;93338.75;;;7.01;55.61
13414;BME280;6778;48.136;11.386;2023-01-16T08:19:55;93337.66;;;6.75;55.53
13414;BME280;6778;48.136;11.386;2023-01-16T08:22:25;93335.19;;;7.61;53.65
13414;BME280;6778;48.136;11.386;2023-01-16T08:24:55;93323.47;;;8.28;51.91
13414;BME280;6778;48.136;11.386;2023-01-16T08:27:27;93316.63;;;7.85;53.09
13414;BME280;6778;48.136;11.386;2023-01-16T08:29:57;93298.09;;;8.61;52.27
13414;BME280;6778;48.136;11.386;2023-01-16T08:32:27;93293.53;;;8.88;50.91
13414;BME280;6778;48.136;11.386;2023-01-16T08:34:57;93281.69;;;8.23;50.55
13414;BME280;6778;48.136;11.386;2023-01-16T08:37:27;93276.72;;;8.64;50.57
13414;BME280;6778;48.136;11.386;2023-01-16T08:39:57;93256.72;;;8.95;49.66
13414;BME280;6778;48.136;11.386;2023-01-16T08:42:29;93250.19;;;8.97;48.95
13414;BME280;6778;48.136;11.386;2023-01-16T08:45:12;93239.03;;;8.39;50.44
13414;BME280;6778;48.136;11.386;2023-01-16T08:47:56;93243.16;;;10.15;46.61
13414;BME280;6778;48.136;11.386;2023-01-16T08:50:40;93221.69;;;10.28;46.28
13414;BME280;6778;48.136;11.386;2023-01-16T08:53:23;93226.44;;;8.99;47.67
13414;BME280;6778;48.136;11.386;2023-01-16T08:55:53;93222.22;;;8.78;47.96
13414;BME280;6778;48.136;11.386;2023-01-16T08:58:25;93202.78;;;10.57;45.35
13414;BME280;6778;48.136;11.386;2023-01-16T09:00:55;93207.91;;;10.77;44.18
13414;BME280;6778;48.136;11.386;2023-01-16T09:03:27;93203.41;;;10.18;45.39
13414;BME280;6778;48.136;11.386;2023-01-16T09:05:57;93199.91;;;10.53;44.43
13414;BME280;6778;48.136;11.386;2023-01-16T09:08:27;93186.81;;;10.53;43.36
13414;BME280;6778;48.136;11.386;2023-01-16T09:10:57;93183.56;;;11.84;42.24
13414;BME280;6778;48.136;11.386;2023-01-16T09:13:42;93184.56;;;10.86;43.00
13414;BME280;6778;48.136;11.386;2023-01-16T09:16:24;93177.88;;;11.09;42.58
13414;BME280;6778;48.136;11.386;2023-01-16T09:18:54;93173.38;;;9.95;44.59
13414;BME280;6778;48.136;11.386;2023-01-16T09:21:24;93174.97;;;8.79;48.33
13414;BME280;6778;48.136;11.386;2023-01-16T09:23:53;93163.25;;;10.53;44.17
13414;BME280;6778;48.136;11.386;2023-01-16T09:26:23;93165.44;;;10.85;43.31
13414;BME280;6778;48.136;11.386;2023-01-16T09:28:56;93153.47;;;11.13;42.10
13414;BME280;6778;48.136;11.386;2023-01-16T09:31:25;93146.56;;;11.28;42.76
13414;BME280;6778;48.136;11.386;2023-01-16T09:33:55;93146.88;;;12.75;39.39
13414;BME280;6778;48.136;11.386;2023-01-16T09:36:25;93142.19;;;11.18;41.81
13414;BME280;6778;48.136;11.386;2023-01-16T09:38:55;93125.59;;;12.52;39.72
13414;BME280;6778;48.136;11.386;2023-01-16T09:41:27;93124.22;;;11.93;40.39
13414;BME280;6778;48.136;11.386;2023-01-16T09:44:17;93110.78;;;12.19;40.28
13414;BME280;6778;48.136;11.386;2023-01-16T09:46:51;93107.16;;;10.10;43.88
13414;BME280;6778;48.136;11.386;2023-01-16T09:49:28;93098.22;;;9.11;46.36
13414;BME280;6778;48.136;11.386;2023-01-16T09:52:03;93095.19;;;7.48;50.12
13414;BME280;6778;48.136;11.386;2023-01-16T09:54:51;93086.44;;;6.52;52.65
13414;BME280;6778;48.136;11.386;2023-01-16T09:57:55;93072.28;;;7.07;52.49
13414;BME280;6778;48.136;11.386;2023-01-16T10:01:00;93061.56;;;8.09;50.17
13414;BME280;6778;48.136;11.386;2023-01-16T10:03:30;93045.47;;;9.19;47.58
13414;BME280;6778;48.136;11.386;2023-01-16T10:06:13;93036.34;;;9.96;45.21
13414;BME280;6778;48.136;11.386;2023-01-16T10:09:02;93026.31;;;7.86;49.60
13414;BME280;6778;48.136;11.386;2023-01-16T10:11:43;93012.31;;;8.33;50.47
13414;BME280;6778;48.136;11.386;2023-01-16T10:14:31;92998.44;;;9.19;47.67
13414;BME280;6778;48.136;11.386;2023-01-16T10:17:19;92993.16;;;10.04;45.56
13414;BME280;6778;48.136;11.386;2023-01-16T10:22:57;92997.41;;;11.55;42.23
13414;BME280;6778;48.136;11.386;2023-01-16T10:25:37;92984.91;;;12.14;41.63
13414;BME280;6778;48.136;11.386;2023-01-16T10:28:25;92971.41;;;11.83;42.41
13414;BME280;6778;48.136;11.386;2023-01-16T10:31:04;92964.81;;;11.37;42.21
13414;BME280;6778;48.136;11.386;2023-01-16T10:33:47;92958.78;;;10.89;42.84
13414;BME280;6778;48.136;11.386;2023-01-16T10:36:26;92954.66;;;11.79;42.11
13414;BME280;6778;48.136;11.386;2023-01-16T10:38:59;92945.47;;;11.81;41.63
13414;BME280;6778;48.136;11.386;2023-01-16T10:41:32;92947.09;;;11.05;44.25
13414;BME280;6778;48.136;11.386;2023-01-16T10:44:30;92932.72;;;10.45;44.79
13414;BME280;6778;48.136;11.386;2023-01-16T10:47:15;92926.38;;;9.72;46.86
13414;BME280;6778;48.136;11.386;2023-01-16T10:50:01;92921.28;;;8.11;50.86
13414;BME280;6778;48.136;11.386;2023-01-16T10:52:32;92912.59;;;7.49;52.73
13414;BME280;6778;48.136;11.386;2023-01-16T10:55:03;92905.84;;;7.58;52.59
13414;BME280;6778;48.136;11.386;2023-01-16T10:57:34;92896.53;;;8.08;51.52
13414;BME280;6778;48.136;11.386;2023-01-16T11:00:13;92889.75;;;8.23;51.24
13414;BME280;6778;48.136;11.386;2023-01-16T11:02:47;92876.22;;;8.41;51.17
13414;BME280;6778;48.136;11.386;2023-01-16T11:05:29;92874.63;;;7.89;51.55
13414;BME280;6778;48.136;11.386;2023-01-16T11:08:05;92870.19;;;8.20;51.73
13414;BME280;6778;48.136;11.386;2023-01-16T11:10:36;92855.34;;;8.20;51.65
13414;BME280;6778;48.136;11.386;2023-01-16T11:13:14;92855.00;;;8.68;50.11
13414;BME280;6778;48.136;11.386;2023-01-16T11:16:02;92852.47;;;7.61;51.28
13414;BME280;6778;48.136;11.386;2023-01-16T11:18:47;92851.34;;;7.21;51.96
13414;BME280;6778;48.136;11.386;2023-01-16T11:21:24;92832.78;;;6.97;52.18
13414;BME280;6778;48.136;11.386;2023-01-16T11:24:00;92832.13;;;7.58;50.69
13414;BME280;6778;48.136;11.386;2023-01-16T11:26:32;92809.44;;;7.99;49.87
13414;BME280;6778;48.136;11.386;2023-01-16T11:29:02;92815.47;;;7.64;51.69
13414;BME280;6778;48.136;11.386;2023-01-16T11:31:35;92796.69;;;7.72;50.17
13414;BME280;6778;48.136;11.386;2023-01-16T11:34:11;92799.78;;;7.23;51.15
13414;BME280;6778;48.136;11.386;2023-01-16T11:36:45;92786.56;;;7.45;51.33
13414;BME280;6778;48.136;11.386;2023-01-16T11:39:19;92772.47;;;7.26;53.49
13414;BME280;6778;48.136;11.386;2023-01-16T11:41:52;92764.59;;;6.90;51.39
13414;BME280;6778;48.136;11.386;2023-01-16T11:44:28;92754.78;;;7.53;50.27
13414;BME280;6778;48.136;11.386;2023-01-16T11:47:13;92759.44;;;7.51;50.05
13414;BME280;6778;48.136;11.386;2023-01-16T11:49:46;92764.69;;;7.41;51.28
13414;BME280;6778;48.136;11.386;2023-01-16T11:52:21;92758.06;;;6.82;51.74
13414;BME280;6778;48.136;11.386;2023-01-16T11:54:59;92758.94;;;7.34;51.25
13414;BME280;6778;48.136;11.386;2023-01-16T11:57:45;92752.19;;;7.33;51.85
13414;BME280;6778;48.136;11.386;2023-01-16T12:00:30;92739.66;;;7.20;52.87
13414;BME280;6778;48.136;11.386;2023-01-16T12:06:39;92739.38;;;7.16;52.89
13414;BME280;6778;48.136;11.386;2023-01-16T12:09:36;92720.38;;;7.00;53.36
13414;BME280;6778;48.136;11.386;2023-01-16T12:12:17;92726.59;;;6.84;53.42
13414;BME280;6778;48.136;11.386;2023-01-16T12:15:03;92717.25;;;6.93;53.40
13414;BME280;6778;48.136;11.386;2023-01-16T12:17:55;92709.97;;;7.31;53.09
13414;BME280;6778;48.136;11.386;2023-01-16T12:20:34;92707.88;;;6.82;54.25
13414;BME280;6778;48.136;11.386;2023-01-16T12:23:36;92702.88;;;6.70;54.44
13414;BME280;6778;48.136;11.386;2023-01-16T12:26:29;92701.16;;;7.11;54.07
13414;BME280;6778;48.136;11.386;2023-01-16T12:29:26;92700.59;;;6.94;54.07
13414;BME280;6778;48.136;11.386;2023-01-16T12:32:22;92691.72;;;6.75;55.07
13414;BME280;6778;48.136;11.386;2023-01-16T12:35:09;92692.22;;;6.51;55.77
13414;BME280;6778;48.136;11.386;2023-01-16T12:38:03;92691.22;;;6.73;56.13
13414;BME280;6778;48.136;11.386;2023-01-16T12:40:54;92690.97;;;6.84;55.97
13414;BME280;6778;48.136;11.386;2023-01-16T12:44:07;92692.50;;;6.75;56.51
13414;BME280;6778;48.136;11.386;2023-01-16T12:46:50;92699.03;;;6.88;56.12
13414;BME280;6778;48.136;11.386;2023-01-16T12:49:37;92698.22;;;6.57;56.67
13414;BME280;6778;48.136;11.386;2023-01-16T12:52:26;92700.53;;;6.64;57.15
13414;BME280;6778;48.136;11.386;2023-01-16T12:55:17;92701.09;;;6.71;56.83
13414;BME280;6778;48.136;11.386;2023-01-16T12:58:05;92713.59;;;6.89;56.69
13414;BME280;6778;48.136;11.386;2023-01-16T13:00:47;92732.31;;;6.76;56.40
13414;BME280;6778;48.136;11.386;2023-01-16T13:03:28;92736.50;;;6.87;56.55
13414;BME280;6778;48.136;11.386;2023-01-16T13:06:10;92740.38;;;6.79;57.22
13414;BME280;6778;48.136;11.386;2023-01-16T13:08:46;92735.69;;;6.81;56.68
13414;BME280;6778;48.136;11.386;2023-01-16T13:11:32;92729.69;;;6.76;57.03
13414;BME280;6778;48.136;11.386;2023-01-16T13:14:32;92727.34;;;6.74;57.17
13414;BME280;6778;48.136;11.386;2023-01-16T13:17:12;92720.59;;;6.73;57.18
13414;BME280;6778;48.136;11.386;2023-01-16T13:20:00;92731.03;;;6.78;57.46
13414;BME280;6778;48.136;11.386;2023-01-16T13:22:41;92735.72;;;6.92;57.18
13414;BME280;6778;48.136;11.386;2023-01-16T13:25:19;92732.09;;;6.93;56.75
13414;BME280;6778;48.136;11.386;2023-01-16T13:27:57;92721.69;;;6.93;56.67
13414;BME280;6778;48.136;11.386;2023-01-16T13:30:28;92725.59;;;7.00;56.37
13414;BME280;6778;48.136;11.386;2023-01-16T13:33:04;92723.25;;;7.09;54.81
13414;BME280;6778;48.136;11.386;2023-01-16T13:35:49;92716.22;;;6.99;53.64
13414;BME280;6778;48.136;11.386;2023-01-16T13:38:40;92709.44;;;6.88;53.36
13414;BME280;6778;48.136;11.386;2023-01-16T13:41:21;92705.53;;;6.91;53.87
13414;BME280;6778;48.136;11.386;2023-01-16T13:44:00;92700.56;;;6.84;53.79
13414;BME280;6778;48.136;11.386;2023-01-16T13:46:47;92697.47;;;6.92;53.05
13414;BME280;6778;48.136;11.386;2023-01-16T13:49:22;92707.88;;;6.82;52.63
13414;BME280;6778;48.136;11.386;2023-01-16T13:51:53;92709.97;;;6.85;52.82
13414;BME280;6778;48.136;11.386;2023-01-16T13:54:37;92705.28;;;6.92;52.83
13414;BME280;6778;48.136;11.386;2023-01-16T13:57:12;92699.31;;;6.92;53.03
13414;BME280;6778;48.136;11.386;2023-01-16T13:59:48;92697.19;;;6.83;52.19
13414;BME280;6778;48.136;11.386;2023-01-16T14:02:39;92691.22;;;6.83;52.15
13414;BME280;6778;48.136;11.386;2023-01-16T14:05:42;92699.03;;;6.78;52.65
13414;BME280;6778;48.136;11.386;2023-01-16T14:08:26;92697.97;;;6.79;51.13
13414;BME280;6778;48.136;11.386;2023-01-16T14:11:23;92693.56;;;6.79;50.87